sensor_id;sensor_type;location;lat;lon;timestamp;P1;durP1;ratioP1;P2;durP2;ratioP2
26562;SDS011;14217;50.986;5.826;2023-02-25T00:00:03;1.30;;;0.73;;
26562;SDS011;14217;50.986;5.826;2023-02-25T00:05:19;1.05;;;0.63;;
26562;SDS011;14217;50.986;5.826;2023-02-25T00:10:21;1.63;;;0.50;;
26562;SDS011;14217;50.986;5.826;2023-02-25T00:15:23;3.75;;;0.57;;
26562;SDS011;14217;50.986;5.826;2023-02-25T00:20:26;1.77;;;0.68;;
26562;SDS011;14217;50.986;5.826;2023-02-25T00:25:28;0.60;;;0.57;;
26562;SDS011;14217;50.986;5.826;2023-02-25T00:30:31;1.33;;;0.60;;
26562;SDS011;14217;50.986;5.826;2023-02-25T00:35:37;0.60;;;0.35;;
26562;SDS011;14217;50.986;5.826;2023-02-25T00:40:39;1.10;;;0.55;;
26562;SDS011;14217;50.986;5.826;2023-02-25T00:45:41;3.28;;;1.05;;
26562;SDS011;14217;50.986;5.826;2023-02-25T00:50:43;0.88;;;0.40;;
26562;SDS011;14217;50.986;5.826;2023-02-25T00:55:45;0.77;;;0.50;;
26562;SDS011;14217;50.986;5.826;2023-02-25T01:00:47;4.00;;;0.60;;
26562;SDS011;14217;50.986;5.826;2023-02-25T01:05:52;1.52;;;0.40;;
26562;SDS011;14217;50.986;5.826;2023-02-25T01:10:54;1.17;;;0.57;;
26562;SDS011;14217;50.986;5.826;2023-02-25T01:15:56;1.92;;;0.75;;
26562;SDS011;14217;50.986;5.826;2023-02-25T01:20:57;1.35;;;0.50;;
26562;SDS011;14217;50.986;5.826;2023-02-25T01:26:02;1.25;;;0.60;;
26562;SDS011;14217;50.986;5.826;2023-02-25T01:31:05;0.38;;;0.30;;
26562;SDS011;14217;50.986;5.826;2023-02-25T01:36:09;2.30;;;0.52;;
26562;SDS011;14217;50.986;5.826;2023-02-25T01:41:11;1.20;;;0.60;;
26562;SDS011;14217;50.986;5.826;2023-02-25T01:46:13;1.77;;;0.47;;
26562;SDS011;14217;50.986;5.826;2023-02-25T01:51:15;0.52;;;0.40;;
26562;SDS011;14217;50.986;5.826;2023-02-25T01:56:17;1.80;;;0.55;;
26562;SDS011;14217;50.986;5.826;2023-02-25T02:01:23;1.80;;;0.40;;
26562;SDS011;14217;50.986;5.826;2023-02-25T02:06:30;0.77;;;0.35;;
26562;SDS011;14217;50.986;5.826;2023-02-25T02:11:36;0.90;;;0.50;;
26562;SDS011;14217;50.986;5.826;2023-02-25T02:21:59;1.73;;;0.50;;
26562;SDS011;14217;50.986;5.826;2023-02-25T02:27:09;1.70;;;0.35;;
26562;SDS011;14217;50.986;5.826;2023-02-25T02:48:12;0.65;;;0.30;;
26562;SDS011;14217;50.986;5.826;2023-02-25T02:53:21;1.05;;;0.30;;
26562;SDS011;14217;50.986;5.826;2023-02-25T02:58:31;0.43;;;0.25;;
26562;SDS011;14217;50.986;5.826;2023-02-25T03:03:39;0.77;;;0.50;;
26562;SDS011;14217;50.986;5.826;2023-02-25T03:08:52;0.93;;;0.50;;
26562;SDS011;14217;50.986;5.826;2023-02-25T03:13:59;0.55;;;0.20;;
26562;SDS011;14217;50.986;5.826;2023-02-25T03:19:03;1.08;;;0.40;;
26562;SDS011;14217;50.986;5.826;2023-02-25T03:24:22;0.68;;;0.50;;
26562;SDS011;14217;50.986;5.826;2023-02-25T03:29:30;0.60;;;0.32;;
26562;SDS011;14217;50.986;5.826;2023-02-25T03:34:36;2.10;;;0.73;;
26562;SDS011;14217;50.986;5.826;2023-02-25T03:39:43;1.05;;;0.30;;
26562;SDS011;14217;50.986;5.826;2023-02-25T03:44:51;0.82;;;0.40;;
26562;SDS011;14217;50.986;5.826;2023-02-25T03:55:03;2.20;;;0.40;;
26562;SDS011;14217;50.986;5.826;2023-02-25T04:05:23;1.13;;;0.70;;
26562;SDS011;14217;50.986;5.826;2023-02-25T04:10:29;1.35;;;0.40;;
26562;SDS011;14217;50.986;5.826;2023-02-25T04:15:31;1.92;;;0.75;;
26562;SDS011;14217;50.986;5.826;2023-02-25T04:20:33;1.05;;;0.50;;
26562;SDS011;14217;50.986;5.826;2023-02-25T04:25:35;1.50;;;0.20;;
26562;SDS011;14217;50.986;5.826;2023-02-25T04:30:37;1.20;;;0.35;;
26562;SDS011;14217;50.986;5.826;2023-02-25T04:35:39;1.65;;;0.40;;
26562;SDS011;14217;50.986;5.826;2023-02-25T04:40:41;1.30;;;0.47;;
26562;SDS011;14217;50.986;5.826;2023-02-25T04:45:43;1.05;;;0.43;;
26562;SDS011;14217;50.986;5.826;2023-02-25T04:50:45;1.95;;;0.60;;
26562;SDS011;14217;50.986;5.826;2023-02-25T04:55:47;1.67;;;0.43;;
26562;SDS011;14217;50.986;5.826;2023-02-25T05:00:52;2.20;;;0.60;;
26562;SDS011;14217;50.986;5.826;2023-02-25T05:05:58;2.30;;;0.68;;
26562;SDS011;14217;50.986;5.826;2023-02-25T05:11:00;0.85;;;0.40;;
26562;SDS011;14217;50.986;5.826;2023-02-25T05:16:07;0.93;;;0.40;;
26562;SDS011;14217;50.986;5.826;2023-02-25T05:21:15;0.35;;;0.20;;
26562;SDS011;14217;50.986;5.826;2023-02-25T05:26:20;1.00;;;0.50;;
26562;SDS011;14217;50.986;5.826;2023-02-25T05:31:24;1.48;;;0.40;;
26562;SDS011;14217;50.986;5.826;2023-02-25T05:36:27;1.55;;;0.50;;
26562;SDS011;14217;50.986;5.826;2023-02-25T05:41:29;1.25;;;0.50;;
26562;SDS011;14217;50.986;5.826;2023-02-25T05:46:31;1.50;;;0.60;;
26562;SDS011;14217;50.986;5.826;2023-02-25T05:51:33;0.95;;;0.40;;
26562;SDS011;14217;50.986;5.826;2023-02-25T05:56:35;0.85;;;0.30;;
26562;SDS011;14217;50.986;5.826;2023-02-25T06:01:37;1.10;;;0.30;;
26562;SDS011;14217;50.986;5.826;2023-02-25T06:06:39;0.82;;;0.30;;
26562;SDS011;14217;50.986;5.826;2023-02-25T06:11:42;0.90;;;0.50;;
26562;SDS011;14217;50.986;5.826;2023-02-25T06:16:44;0.82;;;0.40;;
26562;SDS011;14217;50.986;5.826;2023-02-25T06:21:46;3.78;;;0.47;;
26562;SDS011;14217;50.986;5.826;2023-02-25T06:26:48;0.93;;;0.40;;
26562;SDS011;14217;50.986;5.826;2023-02-25T06:31:50;0.55;;;0.30;;
26562;SDS011;14217;50.986;5.826;2023-02-25T06:36:52;0.95;;;0.38;;
26562;SDS011;14217;50.986;5.826;2023-02-25T06:41:54;0.38;;;0.25;;
26562;SDS011;14217;50.986;5.826;2023-02-25T06:46:56;0.68;;;0.30;;
26562;SDS011;14217;50.986;5.826;2023-02-25T06:51:58;1.40;;;0.20;;
26562;SDS011;14217;50.986;5.826;2023-02-25T06:57:02;2.20;;;0.63;;
26562;SDS011;14217;50.986;5.826;2023-02-25T07:02:04;0.77;;;0.28;;
26562;SDS011;14217;50.986;5.826;2023-02-25T07:07:06;0.82;;;0.30;;
26562;SDS011;14217;50.986;5.826;2023-02-25T07:12:08;3.58;;;0.73;;
26562;SDS011;14217;50.986;5.826;2023-02-25T07:17:10;1.15;;;0.20;;
26562;SDS011;14217;50.986;5.826;2023-02-25T07:22:15;3.22;;;0.50;;
26562;SDS011;14217;50.986;5.826;2023-02-25T07:27:18;2.35;;;0.88;;
26562;SDS011;14217;50.986;5.826;2023-02-25T07:32:22;2.13;;;0.38;;
26562;SDS011;14217;50.986;5.826;2023-02-25T07:37:25;1.95;;;0.30;;
26562;SDS011;14217;50.986;5.826;2023-02-25T07:42:27;2.35;;;0.57;;
26562;SDS011;14217;50.986;5.826;2023-02-25T07:47:29;1.15;;;0.43;;
26562;SDS011;14217;50.986;5.826;2023-02-25T07:52:31;4.43;;;0.60;;
26562;SDS011;14217;50.986;5.826;2023-02-25T07:57:33;1.30;;;0.52;;
26562;SDS011;14217;50.986;5.826;2023-02-25T08:02:36;2.63;;;0.60;;
26562;SDS011;14217;50.986;5.826;2023-02-25T08:07:38;1.95;;;0.40;;
26562;SDS011;14217;50.986;5.826;2023-02-25T08:12:40;0.95;;;0.40;;
26562;SDS011;14217;50.986;5.826;2023-02-25T08:17:42;0.93;;;0.30;;
26562;SDS011;14217;50.986;5.826;2023-02-25T08:22:44;2.08;;;0.57;;
26562;SDS011;14217;50.986;5.826;2023-02-25T08:27:46;0.77;;;0.40;;
26562;SDS011;14217;50.986;5.826;2023-02-25T08:32:48;2.80;;;1.20;;
26562;SDS011;14217;50.986;5.826;2023-02-25T08:37:51;7.35;;;1.48;;
26562;SDS011;14217;50.986;5.826;2023-02-25T08:42:53;6.63;;;1.20;;
26562;SDS011;14217;50.986;5.826;2023-02-25T08:47:55;3.75;;;1.30;;
26562;SDS011;14217;50.986;5.826;2023-02-25T08:52:57;3.42;;;0.70;;
26562;SDS011;14217;50.986;5.826;2023-02-25T08:57:59;3.08;;;0.75;;
26562;SDS011;14217;50.986;5.826;2023-02-25T09:03:02;3.65;;;1.23;;
26562;SDS011;14217;50.986;5.826;2023-02-25T09:08:04;1.88;;;0.95;;
26562;SDS011;14217;50.986;5.826;2023-02-25T09:13:06;3.17;;;1.05;;
26562;SDS011;14217;50.986;5.826;2023-02-25T09:18:08;4.45;;;1.27;;
26562;SDS011;14217;50.986;5.826;2023-02-25T09:23:12;2.00;;;0.93;;
26562;SDS011;14217;50.986;5.826;2023-02-25T09:28:16;6.03;;;1.65;;
26562;SDS011;14217;50.986;5.826;2023-02-25T09:33:18;2.55;;;1.02;;
26562;SDS011;14217;50.986;5.826;2023-02-25T09:38:20;2.45;;;0.95;;
26562;SDS011;14217;50.986;5.826;2023-02-25T09:43:23;5.00;;;1.60;;
26562;SDS011;14217;50.986;5.826;2023-02-25T09:48:30;3.88;;;1.20;;
26562;SDS011;14217;50.986;5.826;2023-02-25T09:53:35;3.13;;;1.10;;
26562;SDS011;14217;50.986;5.826;2023-02-25T09:58:43;3.13;;;0.90;;
26562;SDS011;14217;50.986;5.826;2023-02-25T10:03:58;4.00;;;1.58;;
26562;SDS011;14217;50.986;5.826;2023-02-25T10:25:19;2.08;;;0.88;;
26562;SDS011;14217;50.986;5.826;2023-02-25T10:30:45;1.75;;;0.77;;
26562;SDS011;14217;50.986;5.826;2023-02-25T10:36:20;5.88;;;0.95;;
26562;SDS011;14217;50.986;5.826;2023-02-25T10:41:28;3.55;;;0.80;;
26562;SDS011;14217;50.986;5.826;2023-02-25T10:46:50;3.55;;;0.70;;
26562;SDS011;14217;50.986;5.826;2023-02-25T10:57:07;3.58;;;0.80;;
26562;SDS011;14217;50.986;5.826;2023-02-25T11:02:23;9.98;;;0.80;;
26562;SDS011;14217;50.986;5.826;2023-02-25T11:12:41;2.70;;;0.73;;
26562;SDS011;14217;50.986;5.826;2023-02-25T11:17:54;3.80;;;1.08;;
26562;SDS011;14217;50.986;5.826;2023-02-25T11:29:08;2.72;;;0.63;;
26562;SDS011;14217;50.986;5.826;2023-02-25T11:34:22;1.52;;;0.30;;
26562;SDS011;14217;50.986;5.826;2023-02-25T11:39:27;1.42;;;0.40;;
26562;SDS011;14217;50.986;5.826;2023-02-25T11:44:42;1.75;;;0.68;;
26562;SDS011;14217;50.986;5.826;2023-02-25T12:00:54;1.73;;;0.40;;
26562;SDS011;14217;50.986;5.826;2023-02-25T12:06:05;0.60;;;0.35;;
26562;SDS011;14217;50.986;5.826;2023-02-25T12:11:26;1.30;;;0.60;;
26562;SDS011;14217;50.986;5.826;2023-02-25T12:17:06;3.70;;;0.20;;
26562;SDS011;14217;50.986;5.826;2023-02-25T12:49:47;1.33;;;0.50;;
26562;SDS011;14217;50.986;5.826;2023-02-25T13:06:05;2.03;;;0.93;;
26562;SDS011;14217;50.986;5.826;2023-02-25T13:54:22;0.40;;;0.20;;
26562;SDS011;14217;50.986;5.826;2023-02-25T13:59:44;0.95;;;0.15;;
26562;SDS011;14217;50.986;5.826;2023-02-25T14:11:00;0.93;;;0.25;;
26562;SDS011;14217;50.986;5.826;2023-02-25T14:16:32;0.35;;;0.35;;
26562;SDS011;14217;50.986;5.826;2023-02-25T14:22:09;0.95;;;0.20;;
26562;SDS011;14217;50.986;5.826;2023-02-25T14:27:46;0.77;;;0.22;;
26562;SDS011;14217;50.986;5.826;2023-02-25T14:43:58;0.95;;;0.28;;
26562;SDS011;14217;50.986;5.826;2023-02-25T14:49:14;1.25;;;0.20;;
26562;SDS011;14217;50.986;5.826;2023-02-25T15:21:39;0.85;;;0.13;;
26562;SDS011;14217;50.986;5.826;2023-02-25T15:26:45;1.75;;;0.20;;
26562;SDS011;14217;50.986;5.826;2023-02-25T15:32:22;0.57;;;0.20;;
26562;SDS011;14217;50.986;5.826;2023-02-25T15:37:26;0.68;;;0.17;;
26562;SDS011;14217;50.986;5.826;2023-02-25T16:19:18;1.00;;;0.25;;
26562;SDS011;14217;50.986;5.826;2023-02-25T16:24:24;0.65;;;0.20;;
26562;SDS011;14217;50.986;5.826;2023-02-25T16:29:44;0.25;;;0.05;;
26562;SDS011;14217;50.986;5.826;2023-02-25T16:35:14;3.30;;;0.50;;
26562;SDS011;14217;50.986;5.826;2023-02-25T16:40:27;0.28;;;0.25;;
26562;SDS011;14217;50.986;5.826;2023-02-25T16:45:32;0.63;;;0.22;;
26562;SDS011;14217;50.986;5.826;2023-02-25T16:50:45;1.50;;;0.30;;
26562;SDS011;14217;50.986;5.826;2023-02-25T16:55:56;1.17;;;0.43;;
26562;SDS011;14217;50.986;5.826;2023-02-25T17:01:00;0.45;;;0.25;;
26562;SDS011;14217;50.986;5.826;2023-02-25T17:06:05;1.52;;;0.40;;
26562;SDS011;14217;50.986;5.826;2023-02-25T17:11:19;0.10;;;0.10;;
26562;SDS011;14217;50.986;5.826;2023-02-25T17:16:27;0.52;;;0.20;;
26562;SDS011;14217;50.986;5.826;2023-02-25T17:21:41;4.70;;;0.35;;
26562;SDS011;14217;50.986;5.826;2023-02-25T17:26:47;2.50;;;0.38;;
26562;SDS011;14217;50.986;5.826;2023-02-25T17:31:52;1.23;;;0.30;;
26562;SDS011;14217;50.986;5.826;2023-02-25T17:36:55;0.20;;;0.15;;
26562;SDS011;14217;50.986;5.826;2023-02-25T17:42:00;0.57;;;0.35;;
26562;SDS011;14217;50.986;5.826;2023-02-25T17:47:02;1.17;;;0.17;;
26562;SDS011;14217;50.986;5.826;2023-02-25T17:52:06;0.20;;;0.20;;
26562;SDS011;14217;50.986;5.826;2023-02-25T17:57:18;2.28;;;0.60;;
26562;SDS011;14217;50.986;5.826;2023-02-25T18:07:39;1.30;;;0.95;;
26562;SDS011;14217;50.986;5.826;2023-02-25T18:12:42;0.63;;;0.30;;
26562;SDS011;14217;50.986;5.826;2023-02-25T18:17:52;1.70;;;0.40;;
26562;SDS011;14217;50.986;5.826;2023-02-25T18:22:59;0.38;;;0.30;;
26562;SDS011;14217;50.986;5.826;2023-02-25T18:28:02;2.15;;;0.40;;
26562;SDS011;14217;50.986;5.826;2023-02-25T18:33:06;1.75;;;0.30;;
26562;SDS011;14217;50.986;5.826;2023-02-25T18:38:22;1.67;;;0.60;;
26562;SDS011;14217;50.986;5.826;2023-02-25T18:43:25;1.13;;;0.30;;
26562;SDS011;14217;50.986;5.826;2023-02-25T18:48:31;2.97;;;0.40;;
26562;SDS011;14217;50.986;5.826;2023-02-25T18:53:32;1.58;;;0.32;;
26562;SDS011;14217;50.986;5.826;2023-02-25T18:58:35;0.65;;;0.10;;
26562;SDS011;14217;50.986;5.826;2023-02-25T19:03:37;13.40;;;0.85;;
26562;SDS011;14217;50.986;5.826;2023-02-25T19:08:39;2.00;;;0.47;;
26562;SDS011;14217;50.986;5.826;2023-02-25T19:13:41;0.32;;;0.30;;
26562;SDS011;14217;50.986;5.826;2023-02-25T19:18:45;0.65;;;0.28;;
26562;SDS011;14217;50.986;5.826;2023-02-25T19:23:50;3.25;;;0.30;;
26562;SDS011;14217;50.986;5.826;2023-02-25T19:28:54;0.40;;;0.20;;
26562;SDS011;14217;50.986;5.826;2023-02-25T19:33:56;0.30;;;0.22;;
26562;SDS011;14217;50.986;5.826;2023-02-25T19:38:58;0.55;;;0.22;;
26562;SDS011;14217;50.986;5.826;2023-02-25T19:44:00;1.40;;;0.30;;
26562;SDS011;14217;50.986;5.826;2023-02-25T19:49:02;0.38;;;0.15;;
26562;SDS011;14217;50.986;5.826;2023-02-25T19:54:04;2.17;;;0.55;;
26562;SDS011;14217;50.986;5.826;2023-02-25T19:59:06;0.45;;;0.20;;
26562;SDS011;14217;50.986;5.826;2023-02-25T20:04:09;0.68;;;0.30;;
26562;SDS011;14217;50.986;5.826;2023-02-25T20:09:11;2.20;;;0.20;;
26562;SDS011;14217;50.986;5.826;2023-02-25T20:14:13;0.57;;;0.20;;
26562;SDS011;14217;50.986;5.826;2023-02-25T20:19:17;0.30;;;0.20;;
26562;SDS011;14217;50.986;5.826;2023-02-25T20:24:20;1.38;;;0.30;;
26562;SDS011;14217;50.986;5.826;2023-02-25T20:29:22;0.45;;;0.43;;
26562;SDS011;14217;50.986;5.826;2023-02-25T20:34:24;0.52;;;0.40;;
26562;SDS011;14217;50.986;5.826;2023-02-25T20:44:39;3.33;;;0.82;;
26562;SDS011;14217;50.986;5.826;2023-02-25T20:49:41;0.98;;;0.57;;
26562;SDS011;14217;50.986;5.826;2023-02-25T20:54:43;1.92;;;0.40;;
26562;SDS011;14217;50.986;5.826;2023-02-25T20:59:46;0.75;;;0.40;;
26562;SDS011;14217;50.986;5.826;2023-02-25T21:04:49;0.20;;;0.20;;
26562;SDS011;14217;50.986;5.826;2023-02-25T21:09:52;0.47;;;0.22;;
26562;SDS011;14217;50.986;5.826;2023-02-25T21:14:54;1.05;;;0.40;;
26562;SDS011;14217;50.986;5.826;2023-02-25T21:19:56;1.40;;;0.50;;
26562;SDS011;14217;50.986;5.826;2023-02-25T21:24:58;0.35;;;0.35;;
26562;SDS011;14217;50.986;5.826;2023-02-25T21:30:00;0.75;;;0.45;;
26562;SDS011;14217;50.986;5.826;2023-02-25T21:35:03;0.52;;;0.20;;
26562;SDS011;14217;50.986;5.826;2023-02-25T21:40:06;2.55;;;0.50;;
26562;SDS011;14217;50.986;5.826;2023-02-25T21:45:09;0.65;;;0.57;;
26562;SDS011;14217;50.986;5.826;2023-02-25T21:50:11;0.63;;;0.20;;
26562;SDS011;14217;50.986;5.826;2023-02-25T21:55:13;0.43;;;0.43;;
26562;SDS011;14217;50.986;5.826;2023-02-25T22:00:16;0.82;;;0.38;;
26562;SDS011;14217;50.986;5.826;2023-02-25T22:05:18;0.30;;;0.30;;
26562;SDS011;14217;50.986;5.826;2023-02-25T22:10:20;1.33;;;0.52;;
26562;SDS011;14217;50.986;5.826;2023-02-25T22:15:22;0.30;;;0.20;;
26562;SDS011;14217;50.986;5.826;2023-02-25T22:20:24;0.45;;;0.20;;
26562;SDS011;14217;50.986;5.826;2023-02-25T22:25:26;1.10;;;0.80;;
26562;SDS011;14217;50.986;5.826;2023-02-25T22:30:28;0.63;;;0.43;;
26562;SDS011;14217;50.986;5.826;2023-02-25T22:35:30;0.60;;;0.20;;
26562;SDS011;14217;50.986;5.826;2023-02-25T22:40:32;0.30;;;0.30;;
26562;SDS011;14217;50.986;5.826;2023-02-25T22:45:34;0.55;;;0.30;;
26562;SDS011;14217;50.986;5.826;2023-02-25T22:50:36;0.43;;;0.43;;
26562;SDS011;14217;50.986;5.826;2023-02-25T22:55:43;0.40;;;0.30;;
26562;SDS011;14217;50.986;5.826;2023-02-25T23:00:45;0.70;;;0.47;;
26562;SDS011;14217;50.986;5.826;2023-02-25T23:05:48;1.42;;;0.50;;
26562;SDS011;14217;50.986;5.826;2023-02-25T23:10:51;0.43;;;0.40;;
26562;SDS011;14217;50.986;5.826;2023-02-25T23:15:53;0.70;;;0.40;;
26562;SDS011;14217;50.986;5.826;2023-02-25T23:21:02;0.30;;;0.30;;
26562;SDS011;14217;50.986;5.826;2023-02-25T23:26:06;1.60;;;0.70;;
26562;SDS011;14217;50.986;5.826;2023-02-25T23:31:21;0.55;;;0.30;;
26562;SDS011;14217;50.986;5.826;2023-02-25T23:36:25;1.23;;;0.43;;
26562;SDS011;14217;50.986;5.826;2023-02-25T23:41:28;0.60;;;0.35;;
26562;SDS011;14217;50.986;5.826;2023-02-25T23:46:30;0.75;;;0.40;;
26562;SDS011;14217;50.986;5.826;2023-02-25T23:51:33;1.48;;;0.35;;
26562;SDS011;14217;50.986;5.826;2023-02-25T23:56:35;1.35;;;0.50;;
